CheckWX is a tool to help pilots better visualize weather data.  It is not intended as a substitute for an official pre-flight weather briefing.

12:03:00 UTC

KPEX METAR
Paynesville Municipal Airport
Paynesville, Minnesota, USA
Current

28 mins ago

KPEX 241135Z AUTO 12007KT 10SM -RA SCT036 BKN042 OVC050 10/10 A2998 RMK AO2 T01000095
Observed
May-24 @ 11:35 UTC
Wind
  • 120° at 7 KTS
Visibility
10 SM
Flight Rules
VFR
Conditions
Light Rain
Cloud Levels
  • Scattered at 3,600' AGL
  • Broken at 4,200' AGL
  • Overcast at 5,000' AGL
Temperature
10°C / 50°F
Dewpoint
10°C / 50°F
Humidity
100%
Altimeter
29.98" Hg
Pressure
1015.22 hPa
Previous

48 mins ago

KPEX 241115Z AUTO 12007KT 10SM BKN055 OVC065 10/10 A2997 RMK AO2 T01000095
Observed
May-24 @ 11:15 UTC
Wind
  • 120° at 7 KTS
Visibility
10 SM
Flight Rules
VFR
Cloud Levels
  • Broken at 5,500' AGL
  • Overcast at 6,500' AGL
Temperature
10°C / 50°F
Dewpoint
10°C / 50°F
Humidity
100%
Altimeter
29.97" Hg
Pressure
1014.92 hPa
Previous

1 hour ago

KPEX 241056Z AUTO 09008KT 10SM -RA SCT025 SCT048 OVC055 10/10 A2997 RMK AO2 T01000095
Observed
May-24 @ 10:56 UTC
Wind
  • 090° at 8 KTS
Visibility
10 SM
Flight Rules
VFR
Conditions
Light Rain
Cloud Levels
  • Scattered at 2,500' AGL
  • Scattered at 4,800' AGL
  • Overcast at 5,500' AGL
Temperature
10°C / 50°F
Dewpoint
10°C / 50°F
Humidity
100%
Altimeter
29.97" Hg
Pressure
1014.92 hPa